Time;durP1;ratioP1;P1;durP2;ratioP2;P2;SDS_P1;SDS_P2;PMS_P1;PMS_P2;Temp;Humidity;BMP_temperature;BMP_pressure;BME280_temperature;BME280_humidity;BME280_pressure;Samples;Min_cycle;Max_cycle;Signal;HPM_P1;HPM_P2
2023/09/22 00:00:49;;;;;;;24.60;18.55;;;;;;;12.74;100.00;99738.69;5031923;28;20654;-67
2023/09/22 00:03:15;;;;;;;24.80;18.67;;;;;;;12.65;100.00;99738.78;5018941;28;20038;-68
2023/09/22 00:05:40;;;;;;;25.25;18.42;;;;;;;12.58;100.00;99742.13;5030325;28;20021;-68
2023/09/22 00:08:06;;;;;;;25.73;18.60;;;;;;;12.53;100.00;99738.78;5027495;28;20514;-67
2023/09/22 00:10:32;;;;;;;25.50;17.73;;;;;;;12.46;100.00;99734.63;5020340;28;20033;-67
2023/09/22 00:12:59;;;;;;;25.10;18.50;;;;;;;12.35;100.00;99735.44;5031517;28;20044;-67
2023/09/22 00:15:24;;;;;;;24.75;18.38;;;;;;;12.32;100.00;99739.72;5031182;28;20477;-67
2023/09/22 00:17:50;;;;;;;25.25;18.75;;;;;;;12.22;100.00;99737.41;5017558;28;20147;-67
2023/09/22 00:20:15;;;;;;;25.50;18.02;;;;;;;12.20;100.00;99745.25;5031598;28;20044;-67
2023/09/22 00:22:42;;;;;;;24.77;18.65;;;;;;;12.13;100.00;99748.56;5013406;28;20038;-66
2023/09/22 00:25:09;;;;;;;24.00;17.90;;;;;;;12.01;100.00;99744.63;5027394;28;20029;-66
2023/09/22 00:27:34;;;;;;;24.00;17.83;;;;;;;11.95;100.00;99743.19;5027895;28;20488;-66
2023/09/22 00:30:00;;;;;;;25.52;18.58;;;;;;;11.91;100.00;99741.44;5016096;28;20033;-67
2023/09/22 00:32:25;;;;;;;24.20;17.83;;;;;;;11.89;100.00;99735.44;5020630;28;20053;-65
2023/09/22 00:34:50;;;;;;;24.83;18.20;;;;;;;11.84;100.00;99742.00;5024303;28;20092;-66
2023/09/22 00:37:16;;;;;;;24.50;18.08;;;;;;;11.82;100.00;99736.81;5029266;28;20026;-66
2023/09/22 00:39:41;;;;;;;23.40;17.45;;;;;;;11.82;100.00;99739.59;5034673;28;20496;-66
2023/09/22 00:42:09;;;;;;;23.27;16.67;;;;;;;11.82;100.00;99736.81;5032796;28;20033;-66
2023/09/22 00:44:35;;;;;;;23.00;17.35;;;;;;;11.81;100.00;99751.00;5006805;28;20036;-66
2023/09/22 00:47:01;;;;;;;24.98;17.45;;;;;;;11.81;100.00;99748.22;5028377;28;20097;-66
2023/09/22 00:49:27;;;;;;;24.98;17.10;;;;;;;11.77;100.00;99758.38;5021117;28;20046;-65
2023/09/22 00:51:53;;;;;;;24.00;16.60;;;;;;;11.73;100.00;99751.88;5022101;28;20105;-65
2023/09/22 00:54:19;;;;;;;24.15;16.88;;;;;;;11.67;100.00;99751.28;5023871;28;20037;-65
2023/09/22 00:56:45;;;;;;;23.60;17.58;;;;;;;11.64;100.00;99744.47;5021711;28;20045;-66
2023/09/22 00:59:12;;;;;;;23.75;17.55;;;;;;;11.59;100.00;99743.88;5023942;28;20040;-66
2023/09/22 01:01:37;;;;;;;23.33;16.95;;;;;;;11.57;100.00;99740.66;5029871;28;20075;-66
2023/09/22 01:04:03;;;;;;;23.27;17.40;;;;;;;11.56;100.00;99728.75;5020856;28;20025;-66
2023/09/22 01:06:29;;;;;;;23.25;16.65;;;;;;;11.54;100.00;99731.88;5028561;28;20041;-67
2023/09/22 01:08:56;;;;;;;25.25;16.92;;;;;;;11.51;100.00;99734.50;4997474;28;20056;-66
2023/09/22 01:11:21;;;;;;;24.17;16.77;;;;;;;11.53;100.00;99737.72;5017883;28;20033;-66
2023/09/22 01:13:47;;;;;;;24.50;17.08;;;;;;;11.48;100.00;99749.81;5025820;28;20026;-67
2023/09/22 01:16:12;;;;;;;23.02;16.88;;;;;;;11.47;100.00;99751.00;5015961;28;20048;-67
2023/09/22 01:18:37;;;;;;;23.80;17.23;;;;;;;11.42;100.00;99758.72;5016442;28;20116;-66
2023/09/22 01:21:03;;;;;;;24.67;17.00;;;;;;;11.41;100.00;99749.56;5021928;28;20040;-67
2023/09/22 01:23:29;;;;;;;24.75;17.27;;;;;;;11.39;100.00;99747.16;5019909;28;20349;-66
2023/09/22 01:25:54;;;;;;;25.73;17.70;;;;;;;11.33;100.00;99756.00;5030355;28;20048;-66
2023/09/22 01:28:19;;;;;;;24.58;16.75;;;;;;;11.28;100.00;99751.47;5016841;28;20459;-66
2023/09/22 01:30:45;;;;;;;23.85;16.67;;;;;;;11.24;100.00;99751.34;5023004;28;20133;-67
2023/09/22 01:33:10;;;;;;;26.00;17.50;;;;;;;11.20;100.00;99757.88;5027541;28;20074;-67
2023/09/22 01:35:36;;;;;;;26.10;17.70;;;;;;;11.15;100.00;99749.75;5024186;28;20381;-67
2023/09/22 01:38:24;;;;;;;25.85;17.98;;;;;;;11.12;100.00;99745.72;5025732;28;20113;-67
2023/09/22 01:40:50;;;;;;;24.45;17.55;;;;;;;11.08;100.00;99744.78;5024448;28;20030;-67
2023/09/22 01:43:19;;;;;;;26.60;18.42;;;;;;;11.04;100.00;99739.13;5014553;28;20108;-68
2023/09/22 01:45:44;;;;;;;25.67;17.73;;;;;;;11.00;100.00;99734.59;5025078;28;20022;-67
2023/09/22 01:48:10;;;;;;;26.08;18.17;;;;;;;10.99;100.00;99738.50;5030293;28;20028;-67
2023/09/22 01:50:40;;;;;;;25.92;18.45;;;;;;;10.97;100.00;99741.59;5015817;28;20108;-68
2023/09/22 01:53:08;;;;;;;25.42;18.15;;;;;;;10.95;100.00;99741.13;5030265;28;20116;-67
2023/09/22 01:55:34;;;;;;;28.35;18.48;;;;;;;10.93;100.00;99735.91;5012449;28;20030;-67
2023/09/22 01:58:00;;;;;;;25.02;17.77;;;;;;;10.93;100.00;99735.13;5024001;28;20025;-68
2023/09/22 02:00:26;;;;;;;26.83;18.50;;;;;;;10.97;100.00;99744.34;5033916;28;20124;-67
2023/09/22 02:02:52;;;;;;;26.48;18.92;;;;;;;10.95;100.00;99748.63;5034026;28;20092;-67
2023/09/22 02:05:17;;;;;;;27.02;18.17;;;;;;;10.95;100.00;99743.09;5020127;28;20030;-68
2023/09/22 02:07:43;;;;;;;26.42;18.58;;;;;;;10.97;100.00;99749.09;5032880;28;20025;-68
2023/09/22 02:10:13;;;;;;;27.83;17.98;;;;;;;10.97;100.00;99751.84;5018664;28;20153;-67
2023/09/22 02:12:40;;;;;;;28.65;18.63;;;;;;;10.96;100.00;99745.50;5030653;28;20211;-67
2023/09/22 02:15:09;;;;;;;27.52;18.45;;;;;;;10.96;100.00;99748.28;5029111;28;20026;-67
2023/09/22 02:17:38;;;;;;;28.70;19.63;;;;;;;10.95;100.00;99741.13;5026038;28;20477;-67
2023/09/22 02:20:09;;;;;;;27.05;17.67;;;;;;;10.95;100.00;99730.06;5033596;28;20469;-68
2023/09/22 02:22:35;;;;;;;27.55;18.60;;;;;;;10.96;100.00;99739.97;5021395;28;20038;-67
2023/09/22 02:25:00;;;;;;;27.90;18.98;;;;;;;10.94;100.00;99742.28;5031630;28;20083;-67
2023/09/22 02:27:26;;;;;;;25.38;17.08;;;;;;;10.93;100.00;99737.88;5025312;28;20394;-68
2023/09/22 02:29:51;;;;;;;27.48;18.05;;;;;;;10.93;100.00;99747.00;5017881;28;20168;-66
2023/09/22 02:32:17;;;;;;;26.45;16.92;;;;;;;10.94;100.00;99745.03;5031673;28;20054;-66
2023/09/22 02:34:42;;;;;;;28.52;18.85;;;;;;;10.95;100.00;99745.84;5033221;28;20022;-67
2023/09/22 02:37:07;;;;;;;26.52;17.85;;;;;;;10.97;100.00;99758.19;5033171;28;20037;-67
2023/09/22 02:39:32;;;;;;;27.92;18.42;;;;;;;10.99;100.00;99752.34;5015703;28;20533;-67
2023/09/22 02:41:58;;;;;;;27.88;18.23;;;;;;;11.00;100.00;99752.00;5031030;28;20044;-66
2023/09/22 02:44:23;;;;;;;28.20;18.02;;;;;;;10.99;100.00;99742.06;5029184;28;20036;-66
2023/09/22 02:46:48;;;;;;;26.38;18.23;;;;;;;11.01;100.00;99742.56;5008003;28;20037;-67
2023/09/22 02:49:14;;;;;;;26.40;16.92;;;;;;;11.07;100.00;99741.19;5014019;28;20055;-68
2023/09/22 02:51:39;;;;;;;26.58;17.60;;;;;;;11.06;100.00;99745.09;5021235;28;20084;-67
2023/09/22 02:54:04;;;;;;;27.00;17.90;;;;;;;11.13;100.00;99741.81;5013657;28;20170;-67
2023/09/22 02:56:31;;;;;;;24.35;16.88;;;;;;;11.13;100.00;99747.34;5032805;28;20503;-67
2023/09/22 02:58:56;;;;;;;26.38;17.88;;;;;;;11.17;100.00;99741.94;5025670;28;20026;-67
2023/09/22 03:01:22;;;;;;;29.35;19.15;;;;;;;11.17;100.00;99747.47;5020024;28;20047;-67
2023/09/22 03:03:47;;;;;;;26.52;17.92;;;;;;;11.17;100.00;99751.06;5031522;28;20033;-67
2023/09/22 03:06:12;;;;;;;29.60;18.95;;;;;;;11.17;100.00;99742.78;5031901;28;20388;-67
2023/09/22 03:08:39;;;;;;;25.35;17.70;;;;;;;11.18;100.00;99741.63;5032613;28;20026;-66
2023/09/22 03:11:05;;;;;;;26.17;17.48;;;;;;;11.20;100.00;99739.31;5021132;28;20032;-66
2023/09/22 03:13:31;;;;;;;25.83;17.92;;;;;;;11.20;100.00;99742.06;5019653;28;20025;-66
2023/09/22 03:15:57;;;;;;;25.92;18.20;;;;;;;11.22;100.00;99741.75;5013574;28;20071;-66
2023/09/22 03:18:23;;;;;;;25.13;17.02;;;;;;;11.22;100.00;99742.56;5030459;28;20436;-67
2023/09/22 03:20:48;;;;;;;26.75;17.23;;;;;;;11.19;100.00;99739.66;5032267;28;20034;-66
2023/09/22 03:23:14;;;;;;;27.50;17.63;;;;;;;11.21;100.00;99737.38;5023153;28;20033;-67
2023/09/22 03:25:39;;;;;;;26.98;17.27;;;;;;;11.25;100.00;99752.13;5020902;28;20052;-67
2023/09/22 03:28:05;;;;;;;25.20;17.65;;;;;;;11.19;100.00;99740.44;5016521;28;20040;-67
2023/09/22 03:30:30;;;;;;;26.58;17.55;;;;;;;11.25;100.00;99746.59;5031856;28;20374;-67
2023/09/22 03:32:56;;;;;;;28.42;18.10;;;;;;;11.26;100.00;99741.88;5026037;28;20014;-67
2023/09/22 03:35:22;;;;;;;25.55;16.58;;;;;;;11.28;100.00;99742.38;5013942;28;20029;-67
2023/09/22 03:37:48;;;;;;;25.10;17.08;;;;;;;11.29;100.00;99749.53;5017467;28;20029;-67
2023/09/22 03:40:14;;;;;;;26.42;17.45;;;;;;;11.28;100.00;99743.16;5015900;28;20425;-67
2023/09/22 03:42:41;;;;;;;24.85;16.77;;;;;;;11.29;100.00;99742.03;5012503;28;20128;-67
2023/09/22 03:45:07;;;;;;;26.30;17.20;;;;;;;11.29;100.00;99753.09;5012364;28;20076;-67
2023/09/22 03:47:32;;;;;;;26.10;17.63;;;;;;;11.30;100.00;99751.13;5030888;28;20116;-67
2023/09/22 03:49:58;;;;;;;25.80;17.02;;;;;;;11.33;100.00;99756.00;5012843;28;20184;-67
2023/09/22 03:52:23;;;;;;;26.08;17.02;;;;;;;11.33;100.00;99758.75;5028666;28;20033;-68
2023/09/22 03:54:49;;;;;;;23.15;16.13;;;;;;;11.32;100.00;99757.13;5012234;28;20532;-67
2023/09/22 03:57:16;;;;;;;24.02;16.23;;;;;;;11.33;100.00;99762.34;5021715;28;20044;-68
2023/09/22 03:59:41;;;;;;;24.67;16.48;;;;;;;11.34;100.00;99754.84;5012331;28;20025;-67
2023/09/22 04:02:07;;;;;;;25.25;16.33;;;;;;;11.34;100.00;99757.63;5025555;28;20479;-67
2023/09/22 04:04:32;;;;;;;23.70;16.95;;;;;;;11.36;100.00;99760.88;5012109;28;20114;-67
2023/09/22 04:06:59;;;;;;;24.90;17.30;;;;;;;11.34;100.00;99750.09;5020698;28;20517;-67
2023/09/22 04:09:24;;;;;;;23.70;16.58;;;;;;;11.38;100.00;99753.84;5022105;28;20108;-66
2023/09/22 04:11:50;;;;;;;25.98;17.00;;;;;;;11.38;100.00;99769.66;5011770;28;20105;-67
2023/09/22 04:14:15;;;;;;;22.63;16.23;;;;;;;11.38;100.00;99769.66;5007380;28;20040;-67
2023/09/22 04:16:40;;;;;;;25.27;17.08;;;;;;;11.36;100.00;99761.66;5013219;28;20106;-67
2023/09/22 04:19:09;;;;;;;23.70;17.00;;;;;;;11.36;100.00;99767.19;5024058;28;20060;-66
2023/09/22 04:21:42;;;;;;;24.23;17.55;;;;;;;11.35;100.00;99768.34;5011986;28;20059;-66
2023/09/22 04:24:11;;;;;;;25.65;17.10;;;;;;;11.34;100.00;99771.47;5019282;28;20088;-67
2023/09/22 04:26:43;;;;;;;24.10;17.13;;;;;;;11.32;100.00;99770.97;5021960;28;20489;-66
2023/09/22 04:29:09;;;;;;;22.45;17.45;;;;;;;11.31;100.00;99770.19;5028373;28;20380;-66
2023/09/22 04:31:35;;;;;;;23.67;16.60;;;;;;;11.29;100.00;99772.47;5031140;28;20511;-66
2023/09/22 04:34:01;;;;;;;24.02;16.77;;;;;;;11.28;100.00;99772.81;5014820;28;20101;-66
2023/09/22 04:36:26;;;;;;;23.33;16.80;;;;;;;11.25;100.00;99765.97;5017025;28;20034;-67
2023/09/22 04:38:52;;;;;;;23.20;16.95;;;;;;;11.22;100.00;99772.22;5029769;28;20033;-67
2023/09/22 04:41:20;;;;;;;23.02;16.58;;;;;;;11.22;100.00;99783.28;5019235;28;20042;-67
2023/09/22 04:43:46;;;;;;;23.52;16.08;;;;;;;11.19;100.00;99773.66;5020979;28;20021;-67
2023/09/22 04:46:12;;;;;;;21.20;15.98;;;;;;;11.15;100.00;99778.28;5030146;28;20026;-67
2023/09/22 04:48:38;;;;;;;20.90;15.73;;;;;;;11.12;100.00;99772.59;5030774;28;20083;-67
2023/09/22 04:51:05;;;;;;;22.98;15.70;;;;;;;11.11;100.00;99768.22;5030974;28;20546;-67
2023/09/22 04:53:31;;;;;;;21.98;15.48;;;;;;;11.06;100.00;99777.53;5015035;28;20030;-67
2023/09/22 04:56:03;;;;;;;23.45;15.88;;;;;;;11.02;100.00;99771.03;5017225;28;20026;-66
2023/09/22 04:58:30;;;;;;;22.40;16.23;;;;;;;10.98;100.00;99770.88;5028658;28;20061;-66
2023/09/22 05:00:56;;;;;;;22.98;15.75;;;;;;;10.95;100.00;99777.13;5031225;28;20025;-67
2023/09/22 05:03:22;;;;;;;25.63;17.00;;;;;;;10.91;100.00;99778.91;5005747;28;20029;-66
2023/09/22 05:05:48;;;;;;;22.88;16.65;;;;;;;10.88;100.00;99779.56;5024854;28;20037;-66
2023/09/22 05:08:14;;;;;;;23.58;16.10;;;;;;;10.85;100.00;99785.78;5022250;28;20026;-67
2023/09/22 05:10:40;;;;;;;21.55;15.63;;;;;;;10.84;100.00;99784.16;5013219;28;20069;-68
2023/09/22 05:13:06;;;;;;;21.85;15.60;;;;;;;10.82;100.00;99789.22;5008339;28;20334;-67
2023/09/22 05:15:33;;;;;;;21.20;15.85;;;;;;;10.81;100.00;99793.13;5034563;28;20097;-68
2023/09/22 05:17:58;;;;;;;22.55;16.42;;;;;;;10.77;100.00;99793.00;5034191;28;20037;-68
2023/09/22 05:20:24;;;;;;;21.17;16.38;;;;;;;10.74;100.00;99796.41;5033879;28;20021;-67
2023/09/22 05:22:49;;;;;;;23.83;16.45;;;;;;;10.74;100.00;99801.94;5021436;28;20033;-68
2023/09/22 05:25:16;;;;;;;21.52;16.17;;;;;;;10.73;100.00;99805.84;5019906;28;20042;-68
2023/09/22 05:27:44;;;;;;;22.42;16.27;;;;;;;10.71;100.00;99806.19;5034178;28;20056;-68
2023/09/22 05:30:10;;;;;;;20.73;15.93;;;;;;;10.70;100.00;99814.84;5015233;28;20041;-69
2023/09/22 05:32:36;;;;;;;20.63;15.93;;;;;;;10.70;100.00;99806.53;5031728;28;20048;-69
2023/09/22 05:35:01;;;;;;;21.55;15.77;;;;;;;10.67;100.00;99819.09;5018572;28;20025;-69
2023/09/22 05:37:27;;;;;;;20.80;14.88;;;;;;;10.67;100.00;99821.84;5033457;28;20492;-69
2023/09/22 05:39:53;;;;;;;19.90;15.30;;;;;;;10.64;100.00;99811.44;5031285;28;20072;-69
2023/09/22 05:42:18;;;;;;;20.50;14.70;;;;;;;10.67;100.00;99823.78;5028071;28;20033;-69
2023/09/22 05:44:44;;;;;;;21.95;14.02;;;;;;;10.65;100.00;99817.75;5026257;28;20030;-69
2023/09/22 05:47:09;;;;;;;19.55;13.55;;;;;;;10.66;100.00;99827.69;5014992;28;20045;-69
2023/09/22 05:49:34;;;;;;;21.63;14.23;;;;;;;10.65;100.00;99829.66;5033505;28;20104;-69
2023/09/22 05:52:00;;;;;;;20.50;14.20;;;;;;;10.64;100.00;99830.81;5031376;28;20025;-69
2023/09/22 05:54:26;;;;;;;20.15;14.02;;;;;;;10.68;100.00;99840.03;5033755;28;20026;-69
2023/09/22 05:56:51;;;;;;;22.05;13.98;;;;;;;10.68;100.00;99844.78;5026117;28;20057;-69
2023/09/22 05:59:16;;;;;;;20.02;13.88;;;;;;;10.73;100.00;99852.88;5026807;28;20342;-69
2023/09/22 06:01:42;;;;;;;20.65;13.82;;;;;;;10.79;100.00;99846.03;5033754;28;20033;-68
2023/09/22 06:04:09;;;;;;;21.23;13.52;;;;;;;10.82;100.00;99847.31;5021422;28;20040;-68
2023/09/22 06:06:34;;;;;;;21.00;13.35;;;;;;;10.81;100.00;99852.06;5033689;28;20029;-68
2023/09/22 06:09:00;;;;;;;21.75;13.60;;;;;;;10.85;100.00;99846.66;5015278;28;20048;-68
2023/09/22 06:11:26;;;;;;;20.63;13.73;;;;;;;10.84;100.00;99845.84;5033086;28;20029;-68
2023/09/22 06:13:51;;;;;;;20.75;13.48;;;;;;;10.88;100.00;99854.28;5019194;28;20477;-68
2023/09/22 06:16:18;;;;;;;19.05;13.23;;;;;;;10.90;100.00;99858.34;5019700;28;20036;-68
2023/09/22 06:18:43;;;;;;;21.42;13.40;;;;;;;10.92;100.00;99860.78;5025670;28;20118;-68
2023/09/22 06:21:10;;;;;;;20.27;13.02;;;;;;;10.95;100.00;99860.13;5025686;28;20124;-68
2023/09/22 06:23:36;;;;;;;21.23;13.70;;;;;;;10.99;100.00;99866.59;5029662;28;20026;-69
2023/09/22 06:26:09;;;;;;;20.95;14.10;;;;;;;11.05;100.00;99867.22;5023407;28;20033;-68
2023/09/22 06:28:35;;;;;;;20.63;13.65;;;;;;;11.11;100.00;99867.84;5033504;28;20030;-69
2023/09/22 06:31:01;;;;;;;18.60;13.25;;;;;;;11.12;100.00;99861.97;5027436;28;20048;-69
2023/09/22 06:33:27;;;;;;;19.92;13.68;;;;;;;11.18;100.00;99865.38;5017873;28;20025;-68
2023/09/22 06:36:03;;;;;;;20.45;13.07;;;;;;;11.20;100.00;99868.63;5013666;28;20442;-69
2023/09/22 06:38:32;;;;;;;18.67;12.57;;;;;;;11.24;100.00;99870.38;5024571;28;20064;-69
2023/09/22 06:40:58;;;;;;;19.60;13.10;;;;;;;11.26;100.00;99861.72;5014869;28;20022;-67
2023/09/22 06:43:24;;;;;;;19.60;13.00;;;;;;;11.35;100.00;99872.78;5013232;28;20532;-68
2023/09/22 06:45:51;;;;;;;19.83;13.23;;;;;;;11.37;100.00;99876.03;5030002;28;20037;-67
2023/09/22 06:48:27;;;;;;;19.80;12.82;;;;;;;11.42;100.00;99869.47;5014451;28;20022;-65
2023/09/22 06:50:57;;;;;;;19.67;13.50;;;;;;;11.47;100.00;99880.34;5025254;28;20018;-65
2023/09/22 06:53:24;;;;;;;20.00;13.30;;;;;;;11.52;100.00;99885.69;5020537;28;20036;-66
2023/09/22 06:55:49;;;;;;;18.63;13.05;;;;;;;11.58;100.00;99875.22;5020738;28;20022;-66
2023/09/22 06:58:15;;;;;;;20.70;13.05;;;;;;;11.64;100.00;99876.66;5024353;28;20091;-67
2023/09/22 07:00:40;;;;;;;19.92;12.90;;;;;;;11.68;100.00;99875.63;5024571;28;20037;-66
2023/09/22 07:03:06;;;;;;;18.42;11.88;;;;;;;11.74;100.00;99876.25;5027083;28;20072;-66
2023/09/22 07:05:32;;;;;;;16.83;11.60;;;;;;;11.82;100.00;99883.69;5024440;28;20083;-65
2023/09/22 07:07:57;;;;;;;18.67;11.60;;;;;;;11.92;100.00;99876.91;5017904;28;20117;-66
2023/09/22 07:10:24;;;;;;;17.73;11.60;;;;;;;12.00;100.00;99887.13;5023655;28;20053;-67
2023/09/22 07:12:50;;;;;;;19.48;11.45;;;;;;;12.02;100.00;99884.03;5027235;28;20021;-67
2023/09/22 07:15:16;;;;;;;17.77;11.90;;;;;;;12.05;100.00;99883.34;5021397;28;20022;-67
2023/09/22 07:17:44;;;;;;;19.10;12.07;;;;;;;12.11;100.00;99898.63;5029494;28;20034;-67
2023/09/22 07:20:12;;;;;;;18.90;11.88;;;;;;;12.19;100.00;99893.34;5019337;28;20033;-67
2023/09/22 07:22:38;;;;;;;16.08;10.80;;;;;;;12.23;100.00;99897.06;5012676;28;20034;-67
2023/09/22 07:25:03;;;;;;;17.80;11.65;;;;;;;12.27;100.00;99898.81;5022348;28;20539;-67
2023/09/22 07:27:29;;;;;;;17.63;11.40;;;;;;;12.35;100.00;99904.63;5032233;28;20207;-67
2023/09/22 07:29:54;;;;;;;16.92;11.20;;;;;;;12.42;100.00;99904.88;5005441;28;20129;-67
2023/09/22 07:32:20;;;;;;;17.20;11.00;;;;;;;12.47;100.00;99915.72;5024156;28;20076;-67
2023/09/22 07:34:48;;;;;;;18.10;10.90;;;;;;;12.52;100.00;99914.72;5031289;28;20124;-67
2023/09/22 07:37:16;;;;;;;18.50;10.70;;;;;;;12.58;100.00;99927.22;5032037;28;20037;-66
2023/09/22 07:39:41;;;;;;;15.40;10.80;;;;;;;12.65;100.00;99935.81;5032137;28;20033;-68
2023/09/22 07:42:09;;;;;;;18.45;11.35;;;;;;;12.74;100.00;99941.28;5032036;28;20022;-67
2023/09/22 07:44:34;;;;;;;16.20;10.80;;;;;;;12.79;100.00;99938.25;5031865;28;20175;-67
2023/09/22 07:47:00;;;;;;;15.82;10.45;;;;;;;12.79;100.00;99936.31;5012584;28;20108;-67
2023/09/22 07:49:26;;;;;;;16.58;10.75;;;;;;;12.83;100.00;99944.75;5017369;28;20390;-67
2023/09/22 07:51:52;;;;;;;15.55;10.32;;;;;;;12.86;100.00;99944.06;5012066;28;20057;-67
2023/09/22 07:54:20;;;;;;;16.42;10.60;;;;;;;12.92;100.00;99945.47;5012082;28;20521;-67
2023/09/22 07:56:46;;;;;;;15.32;10.30;;;;;;;13.02;100.00;99946.97;5013176;28;20426;-67
2023/09/22 07:59:16;;;;;;;16.20;10.00;;;;;;;13.09;100.00;99950.00;5017268;28;20034;-67
2023/09/22 08:01:43;;;;;;;14.70;10.20;;;;;;;13.16;100.00;99952.19;5031038;28;20037;-67
2023/09/22 08:04:11;;;;;;;15.40;10.10;;;;;;;13.22;100.00;99953.63;5024280;28;20026;-68
2023/09/22 08:06:37;;;;;;;15.63;9.90;;;;;;;13.33;100.00;99947.56;5011964;28;20032;-67
2023/09/22 08:09:05;;;;;;;13.30;9.82;;;;;;;13.34;100.00;99946.41;5011836;28;20026;-67
2023/09/22 08:11:32;;;;;;;14.30;10.27;;;;;;;13.36;100.00;99947.72;5009902;28;20026;-67
2023/09/22 08:13:58;;;;;;;15.05;10.00;;;;;;;13.37;100.00;99945.72;5011784;28;20556;-67
2023/09/22 08:16:24;;;;;;;14.13;10.10;;;;;;;13.39;100.00;99947.03;5011885;28;20030;-66
2023/09/22 08:18:50;;;;;;;13.15;9.95;;;;;;;13.44;100.00;99968.22;5016078;28;20152;-66
2023/09/22 08:21:15;;;;;;;15.43;10.48;;;;;;;13.41;100.00;99966.94;5020305;28;20430;-67
2023/09/22 08:23:41;;;;;;;14.93;9.95;;;;;;;13.54;100.00;99966.97;5011794;28;20122;-67
2023/09/22 08:26:06;;;;;;;12.85;9.57;;;;;;;13.62;100.00;99976.31;5022040;28;20030;-66
2023/09/22 08:28:37;;;;;;;13.15;9.95;;;;;;;13.70;100.00;99983.72;5019210;28;20418;-66
2023/09/22 08:31:05;;;;;;;12.82;9.60;;;;;;;13.76;100.00;99982.34;5022880;28;20053;-66
2023/09/22 08:33:31;;;;;;;14.60;9.68;;;;;;;13.86;100.00;99984.66;5024313;28;20084;-67
2023/09/22 08:35:57;;;;;;;14.50;9.90;;;;;;;13.97;100.00;99982.19;5027919;28;20018;-66
2023/09/22 08:38:22;;;;;;;14.25;9.85;;;;;;;14.03;100.00;99977.19;5020956;28;20112;-66
2023/09/22 08:40:48;;;;;;;13.48;9.80;;;;;;;14.08;100.00;99974.16;4993787;28;20049;-66
2023/09/22 08:43:13;;;;;;;13.77;10.00;;;;;;;14.18;100.00;99973.66;5021666;28;20558;-66
2023/09/22 08:45:40;;;;;;;14.38;10.80;;;;;;;14.29;100.00;99984.31;5022542;28;20060;-66
2023/09/22 08:48:06;;;;;;;14.93;10.05;;;;;;;14.40;100.00;99982.66;5025911;28;20034;-67
2023/09/22 08:50:31;;;;;;;16.60;10.50;;;;;;;14.61;100.00;99976.88;5026084;28;20405;-66
2023/09/22 08:52:57;;;;;;;14.02;9.68;;;;;;;14.82;100.00;99981.44;5028709;28;20092;-66
2023/09/22 08:55:23;;;;;;;13.00;10.15;;;;;;;14.98;100.00;99979.50;5022961;28;20038;-66
2023/09/22 08:57:49;;;;;;;14.75;9.90;;;;;;;15.03;100.00;99985.97;5022447;28;20485;-67
2023/09/22 09:00:20;;;;;;;11.95;9.18;;;;;;;15.15;100.00;99990.66;5017616;28;20036;-65
2023/09/22 09:02:50;;;;;;;13.73;9.25;;;;;;;15.20;100.00;99994.00;5025698;28;20095;-65
2023/09/22 09:05:24;;;;;;;14.18;9.57;;;;;;;15.09;100.00;99993.72;5023433;28;20478;-66
2023/09/22 09:07:50;;;;;;;12.77;9.20;;;;;;;15.07;99.87;100003.56;5015243;28;20025;-65
2023/09/22 09:10:30;;;;;;;12.23;9.18;;;;;;;15.11;100.00;99998.94;5015955;28;20041;-66
2023/09/22 09:12:56;;;;;;;15.32;9.70;;;;;;;15.13;99.58;99996.59;5014712;28;20469;-65
2023/09/22 09:15:25;;;;;;;12.52;9.30;;;;;;;15.21;99.87;100001.19;5014202;28;20022;-65
2023/09/22 09:18:08;;;;;;;13.15;9.20;;;;;;;15.20;100.00;100002.34;5013976;28;20033;-65
2023/09/22 09:20:40;;;;;;;12.93;9.88;;;;;;;15.25;99.88;100006.84;5013771;28;20032;-66
2023/09/22 09:23:19;;;;;;;13.68;9.30;;;;;;;15.28;100.00;100006.94;5014133;28;20106;-65
2023/09/22 09:25:55;;;;;;;13.73;10.05;;;;;;;15.17;97.62;100002.25;5012614;28;20034;-65
2023/09/22 09:28:22;;;;;;;13.93;9.30;;;;;;;15.06;96.72;100011.13;5012617;28;20026;-66
2023/09/22 09:30:54;;;;;;;14.82;9.68;;;;;;;15.03;98.80;100005.47;5011329;28;20128;-66
2023/09/22 09:33:24;;;;;;;15.45;9.70;;;;;;;15.07;100.00;100000.78;5012223;28;20045;-66
2023/09/22 09:35:50;;;;;;;12.82;9.27;;;;;;;15.20;97.30;100016.28;5012177;28;20501;-66
2023/09/22 09:38:17;;;;;;;14.05;9.48;;;;;;;15.20;95.93;100009.91;5012394;28;20026;-67
2023/09/22 09:40:42;;;;;;;13.23;9.30;;;;;;;15.19;96.83;100011.88;5013667;28;20369;-67
2023/09/22 09:43:10;;;;;;;11.30;9.20;;;;;;;15.08;95.64;100008.81;5013568;28;20030;-66
2023/09/22 09:45:42;;;;;;;14.15;9.80;;;;;;;15.05;97.67;100017.06;5013539;28;20026;-65
2023/09/22 09:48:10;;;;;;;13.63;9.50;;;;;;;15.06;94.88;100022.28;5014056;28;20092;-65
2023/09/22 09:50:37;;;;;;;11.88;8.77;;;;;;;14.98;92.68;100012.13;5013485;28;20029;-65
2023/09/22 09:53:23;;;;;;;12.43;8.82;;;;;;;15.05;93.75;100029.00;4995597;28;20021;-65
2023/09/22 09:55:49;;;;;;;10.65;9.27;;;;;;;15.09;92.74;100026.31;5013544;28;20037;-66
2023/09/22 09:58:16;;;;;;;12.10;9.57;;;;;;;15.30;93.26;100026.09;5012328;28;20030;-67
2023/09/22 10:00:43;;;;;;;12.38;8.90;;;;;;;15.44;92.20;100022.88;5013533;28;20044;-66
2023/09/22 10:03:11;;;;;;;13.15;9.18;;;;;;;15.49;91.55;100013.44;5013382;28;20120;-67
2023/09/22 10:05:38;;;;;;;13.05;9.55;;;;;;;15.63;90.44;100010.97;5013443;28;20026;-66
2023/09/22 10:08:06;;;;;;;13.35;9.60;;;;;;;15.79;89.97;100024.91;5013016;28;20140;-68
2023/09/22 10:10:33;;;;;;;12.68;9.73;;;;;;;15.88;89.64;100008.00;5013098;28;20026;-66
2023/09/22 10:12:59;;;;;;;13.20;9.50;;;;;;;16.05;88.97;100007.63;5013234;28;20026;-66
2023/09/22 10:15:50;;;;;;;14.27;10.05;;;;;;;16.28;90.42;100006.09;5012942;28;20057;-66
2023/09/22 10:18:17;;;;;;;14.18;10.00;;;;;;;16.29;88.49;100000.16;4999240;28;20494;-66
2023/09/22 10:20:46;;;;;;;12.85;9.45;;;;;;;16.39;87.20;100001.53;5012659;28;20088;-67
2023/09/22 10:23:17;;;;;;;12.35;9.18;;;;;;;16.44;86.19;100003.22;4994859;28;20048;-67
2023/09/22 10:25:42;;;;;;;12.52;9.27;;;;;;;16.46;87.83;100003.69;5013176;28;20030;-67
2023/09/22 10:28:09;;;;;;;13.70;10.07;;;;;;;16.60;86.89;100003.16;5012696;28;20084;-67
2023/09/22 10:31:02;;;;;;;13.70;9.93;;;;;;;16.78;85.36;100004.31;5011632;28;20032;-68
2023/09/22 10:33:30;;;;;;;12.38;9.38;;;;;;;16.80;81.53;100007.56;5008850;28;20096;-67
2023/09/22 10:35:57;;;;;;;13.80;10.18;;;;;;;16.78;81.62;100004.31;5012478;28;20032;-67
2023/09/22 10:38:23;;;;;;;14.77;9.20;;;;;;;16.79;82.37;100007.94;5012584;28;20099;-67
2023/09/22 10:41:04;;;;;;;10.65;8.90;;;;;;;16.88;84.33;100005.72;5012675;28;20104;-68
2023/09/22 10:43:32;;;;;;;14.02;9.10;;;;;;;16.86;80.80;100012.88;5012583;28;20029;-67
2023/09/22 10:45:58;;;;;;;10.80;8.45;;;;;;;16.81;78.14;100008.38;5012091;28;20030;-66
2023/09/22 10:48:23;;;;;;;12.30;8.90;;;;;;;16.69;79.81;100004.56;5012593;28;20030;-65
2023/09/22 10:50:49;;;;;;;12.70;9.23;;;;;;;16.79;80.99;100011.53;5012708;28;20030;-67
2023/09/22 10:53:15;;;;;;;13.18;9.30;;;;;;;16.86;82.28;99998.91;5012439;28;20033;-67
2023/09/22 10:55:43;;;;;;;14.30;9.80;;;;;;;16.91;80.31;99995.78;5012400;28;20056;-66
2023/09/22 10:58:15;;;;;;;13.05;9.68;;;;;;;16.96;80.04;100001.09;5021273;28;20180;-67
2023/09/22 11:00:54;;;;;;;14.27;10.02;;;;;;;17.00;80.36;99996.38;5023299;28;20481;-67
2023/09/22 11:03:19;;;;;;;13.10;9.45;;;;;;;17.03;79.32;100001.25;5023289;28;20025;-67
2023/09/22 11:05:55;;;;;;;14.98;9.50;;;;;;;17.19;79.66;100008.69;5031883;28;20033;-68
2023/09/22 11:08:20;;;;;;;13.48;9.38;;;;;;;17.36;80.63;100002.59;5031902;28;20045;-68
2023/09/22 11:10:51;;;;;;;12.52;9.10;;;;;;;17.41;78.64;99996.72;5031909;28;20462;-68